Time;durP1;ratioP1;P1;durP2;ratioP2;P2;SDS_P1;SDS_P2;PMS_P1;PMS_P2;Temp;Humidity;BMP_temperature;BMP_pressure;BME280_temperature;BME280_humidity;BME280_pressure;Samples;Min_cycle;Max_cycle;Signal;HPM_P1;HPM_P2
2022/04/06 00:01:40;;;;;;;20.23;7.80;;;8.40;99.90;;;;;;5005685;28;20041;-88
2022/04/06 00:04:05;;;;;;;21.20;8.13;;;8.30;99.90;;;;;;5001280;28;20044;-90
2022/04/06 00:06:31;;;;;;;21.63;7.40;;;8.30;99.90;;;;;;4984412;28;20167;-89
2022/04/06 00:08:57;;;;;;;18.25;7.93;;;8.30;99.90;;;;;;4992752;28;20098;-89
2022/04/06 00:11:23;;;;;;;21.10;7.85;;;8.30;99.90;;;;;;5000313;28;20044;-89
2022/04/06 00:13:49;;;;;;;22.60;8.43;;;8.30;99.90;;;;;;5017546;28;20052;-89
2022/04/06 00:16:16;;;;;;;22.10;8.75;;;8.30;99.90;;;;;;5025895;28;20426;-89
2022/04/06 00:18:42;;;;;;;25.98;8.77;;;9.10;99.90;;;;;;5030017;28;20164;-88
2022/04/06 00:21:08;;;;;;;25.13;8.88;;;8.50;99.90;;;;;;5001059;28;20115;-90
2022/04/06 00:23:34;;;;;;;23.83;9.02;;;8.30;99.90;;;;;;5014248;28;20434;-90
2022/04/06 00:26:00;;;;;;;24.33;9.30;;;8.30;99.90;;;;;;4970058;28;20048;-90
2022/04/06 00:28:26;;;;;;;29.50;9.25;;;8.50;99.90;;;;;;4998441;28;20045;-89
2022/04/06 00:30:52;;;;;;;26.85;9.77;;;8.30;99.90;;;;;;5011377;28;20514;-91
2022/04/06 00:33:17;;;;;;;25.38;9.52;;;8.40;99.90;;;;;;5016925;28;20041;-90
2022/04/06 00:35:43;;;;;;;23.55;9.05;;;8.40;99.90;;;;;;4982498;28;20045;-89
2022/04/06 00:38:09;;;;;;;28.65;10.10;;;8.40;99.90;;;;;;5015610;28;20547;-89
2022/04/06 00:40:37;;;;;;;24.98;10.40;;;8.30;99.90;;;;;;5001287;28;20497;-89
2022/04/06 00:43:11;;;;;;;22.42;9.98;;;8.40;99.90;;;;;;5021366;28;20045;-90
2022/04/06 00:45:38;;;;;;;23.98;10.45;;;8.40;99.90;;;;;;5023942;28;20072;-89
2022/04/06 00:48:05;;;;;;;25.50;10.65;;;8.30;99.90;;;;;;5018618;28;20114;-89
2022/04/06 00:50:31;;;;;;;30.30;11.55;;;8.30;99.90;;;;;;4996231;28;20033;-90
2022/04/06 00:52:58;;;;;;;26.00;10.60;;;8.40;99.90;;;;;;5010811;28;20042;-89
2022/04/06 00:55:30;;;;;;;26.92;11.05;;;8.30;99.90;;;;;;4998717;28;20045;-89
2022/04/06 00:57:56;;;;;;;25.57;10.87;;;9.00;99.90;;;;;;5009891;28;20052;-89
2022/04/06 01:00:22;;;;;;;24.75;11.35;;;8.40;99.90;;;;;;4984058;28;20041;-89
2022/04/06 01:02:48;;;;;;;23.70;10.75;;;8.40;99.90;;;;;;5016741;28;20037;-90
2022/04/06 01:05:14;;;;;;;29.35;12.63;;;8.30;99.90;;;;;;5010429;28;20545;-88
2022/04/06 01:07:42;;;;;;;29.17;13.35;;;8.40;99.90;;;;;;4978216;28;20037;-90
2022/04/06 01:10:08;;;;;;;27.40;11.25;;;8.40;99.90;;;;;;5020575;28;20064;-89
2022/04/06 01:12:43;;;;;;;31.00;12.10;;;8.90;99.90;;;;;;4992054;28;20490;-90
2022/04/06 01:15:09;;;;;;;28.05;11.25;;;8.30;99.90;;;;;;5033073;28;20129;-88
2022/04/06 01:17:35;;;;;;;29.05;11.60;;;8.40;99.90;;;;;;4997161;28;20084;-89
2022/04/06 01:20:05;;;;;;;29.08;12.88;;;8.40;99.90;;;;;;5017122;28;20084;-89
2022/04/06 01:22:31;;;;;;;27.23;11.63;;;8.40;99.90;;;;;;5021319;28;20048;-89
2022/04/06 01:24:57;;;;;;;23.25;11.20;;;8.40;99.90;;;;;;5013262;28;20041;-90
2022/04/06 01:27:23;;;;;;;29.92;12.00;;;8.30;99.90;;;;;;4981278;28;20033;-90
2022/04/06 01:29:51;;;;;;;29.38;12.07;;;8.40;99.90;;;;;;5026038;28;20076;-89
2022/04/06 01:32:18;;;;;;;32.83;12.18;;;8.40;99.90;;;;;;4992465;28;20041;-90
2022/04/06 01:34:45;;;;;;;27.02;11.00;;;8.40;99.90;;;;;;5033816;28;20052;-88
2022/04/06 01:37:12;;;;;;;30.48;12.52;;;9.20;99.90;;;;;;5020398;28;20068;-88
2022/04/06 01:39:41;;;;;;;29.67;11.63;;;8.40;99.90;;;;;;5036905;28;20044;-90
2022/04/06 01:42:08;;;;;;;28.05;12.52;;;9.30;99.90;;;;;;5012243;28;20466;-89
2022/04/06 01:44:34;;;;;;;26.98;10.90;;;8.40;99.90;;;;;;4997075;28;20505;-89
2022/04/06 01:47:02;;;;;;;24.58;11.13;;;8.40;99.90;;;;;;4994103;28;20099;-89
2022/04/06 01:52:12;;;;;;;27.85;11.57;;;8.40;99.90;;;;;;4999584;28;20041;-89
2022/04/06 01:54:47;;;;;;;32.05;9.77;;;8.40;99.90;;;;;;4994406;28;20044;-88
2022/04/06 01:57:13;;;;;;;23.90;9.73;;;8.40;99.90;;;;;;5019127;28;20048;-89
2022/04/06 01:59:41;;;;;;;26.52;10.48;;;8.40;99.90;;;;;;5001581;28;20127;-89
2022/04/06 02:02:08;;;;;;;22.35;8.88;;;8.40;99.90;;;;;;5012232;28;20033;-89
2022/04/06 02:04:34;;;;;;;22.10;9.35;;;8.90;99.90;;;;;;4995249;28;20048;-89
2022/04/06 02:07:00;;;;;;;22.83;9.45;;;8.40;99.90;;;;;;5002651;28;20033;-89
2022/04/06 02:09:26;;;;;;;18.85;8.90;;;8.40;99.90;;;;;;5020113;28;20037;-89
2022/04/06 02:11:52;;;;;;;24.33;9.27;;;8.40;99.90;;;;;;5003029;28;20041;-88
2022/04/06 02:14:18;;;;;;;21.92;8.27;;;8.60;99.90;;;;;;5035442;28;20142;-89
2022/04/06 02:16:44;;;;;;;22.52;8.40;;;8.50;99.90;;;;;;5016415;28;20515;-89
2022/04/06 02:19:10;;;;;;;19.25;8.43;;;8.50;99.90;;;;;;4984224;28;20038;-89
2022/04/06 02:21:36;;;;;;;22.75;7.55;;;8.50;99.90;;;;;;5011566;28;20589;-88
2022/04/06 02:24:02;;;;;;;24.48;8.13;;;8.90;99.90;;;;;;5015758;28;20045;-89
2022/04/06 02:26:28;;;;;;;21.23;8.05;;;8.50;99.90;;;;;;5005544;28;20493;-90
2022/04/06 02:28:55;;;;;;;23.63;7.45;;;8.50;99.90;;;;;;5011161;28;20037;-88
2022/04/06 02:31:21;;;;;;;21.13;7.43;;;8.50;99.90;;;;;;5011147;28;20044;-89
2022/04/06 02:33:47;;;;;;;19.08;7.32;;;8.50;99.90;;;;;;4998866;28;20045;-90
2022/04/06 02:36:12;;;;;;;21.27;7.20;;;8.50;99.90;;;;;;5013549;28;20055;-89
2022/04/06 02:38:39;;;;;;;20.27;6.70;;;8.50;99.90;;;;;;5010112;28;20072;-88
2022/04/06 02:41:08;;;;;;;19.83;7.07;;;8.50;99.90;;;;;;4985957;28;20038;-90
2022/04/06 02:43:34;;;;;;;21.88;7.03;;;8.50;99.90;;;;;;5014310;28;20514;-89
2022/04/06 02:46:00;;;;;;;18.30;6.43;;;8.50;99.90;;;;;;5016415;28;20045;-89
2022/04/06 02:48:26;;;;;;;17.95;6.53;;;8.80;99.90;;;;;;5004395;28;20120;-90
2022/04/06 02:50:51;;;;;;;17.08;6.55;;;8.50;99.90;;;;;;4998038;28;20044;-90
2022/04/06 02:53:17;;;;;;;19.58;6.93;;;8.50;99.90;;;;;;4987418;28;20042;-89
2022/04/06 02:55:43;;;;;;;17.45;5.53;;;8.50;99.90;;;;;;4981444;28;20080;-88
2022/04/06 02:58:08;;;;;;;16.48;5.95;;;8.50;99.90;;;;;;4998597;28;20073;-90
2022/04/06 03:00:35;;;;;;;14.85;5.07;;;8.50;99.90;;;;;;4995952;28;20421;-86
2022/04/06 03:03:02;;;;;;;20.13;5.88;;;8.50;99.90;;;;;;5014625;28;20537;-88
2022/04/06 03:05:28;;;;;;;16.17;4.75;;;8.50;99.90;;;;;;5015515;28;20064;-88
2022/04/06 03:07:54;;;;;;;15.43;4.65;;;8.50;99.90;;;;;;5004647;28;20491;-89
2022/04/06 03:10:20;;;;;;;13.35;4.75;;;8.50;99.90;;;;;;5013064;28;20041;-89
2022/04/06 03:12:45;;;;;;;12.57;4.38;;;8.50;99.90;;;;;;4990461;28;20045;-88
2022/04/06 03:15:12;;;;;;;12.15;4.25;;;8.50;99.90;;;;;;4993041;28;20077;-88
2022/04/06 03:17:38;;;;;;;14.27;3.92;;;8.40;99.90;;;;;;5012155;28;20061;-88
2022/04/06 03:20:05;;;;;;;12.70;4.03;;;8.50;99.90;;;;;;5025850;28;20095;-88
2022/04/06 03:22:31;;;;;;;11.00;3.67;;;8.50;99.90;;;;;;5020311;28;20461;-89
2022/04/06 03:24:57;;;;;;;13.13;3.90;;;8.50;99.90;;;;;;5008496;28;20041;-89
2022/04/06 03:27:23;;;;;;;14.38;4.50;;;9.80;99.90;;;;;;5015978;28;20039;-90
2022/04/06 03:29:49;;;;;;;13.68;4.18;;;8.50;99.90;;;;;;5044599;28;20127;-90
2022/04/06 03:32:14;;;;;;;13.20;3.35;;;8.50;99.90;;;;;;5019949;28;20382;-89
2022/04/06 03:34:40;;;;;;;14.40;3.92;;;8.50;99.90;;;;;;5008989;28;20096;-89
2022/04/06 03:37:06;;;;;;;10.48;3.60;;;9.00;99.90;;;;;;5032668;28;20033;-89
2022/04/06 03:39:33;;;;;;;13.80;4.95;;;8.40;99.90;;;;;;5002277;28;20040;-89
2022/04/06 03:41:58;;;;;;;16.63;4.35;;;8.40;99.90;;;;;;5033219;28;20060;-88
2022/04/06 03:44:24;;;;;;;13.48;3.60;;;8.40;99.90;;;;;;5033492;28;20064;-87
2022/04/06 03:46:50;;;;;;;11.93;3.78;;;9.40;99.90;;;;;;4995765;28;20067;-89
2022/04/06 03:49:16;;;;;;;13.07;4.50;;;8.40;99.90;;;;;;5017423;28;20037;-90
2022/04/06 03:51:43;;;;;;;16.60;4.00;;;8.60;99.90;;;;;;5004760;28;20029;-90
2022/04/06 03:54:09;;;;;;;12.98;4.28;;;8.70;99.90;;;;;;5012940;28;20055;-89
2022/04/06 03:56:35;;;;;;;14.15;4.50;;;8.50;99.90;;;;;;5017691;28;20441;-89
2022/04/06 03:59:01;;;;;;;16.42;4.50;;;8.40;99.90;;;;;;5017209;28;20044;-89
2022/04/06 04:01:30;;;;;;;14.15;5.00;;;8.50;99.90;;;;;;5016890;28;20075;-89
2022/04/06 04:03:56;;;;;;;14.73;4.57;;;8.50;99.90;;;;;;5006441;28;20041;-88
2022/04/06 04:06:22;;;;;;;15.32;5.00;;;8.50;99.90;;;;;;5034222;28;20056;-89
2022/04/06 04:08:47;;;;;;;16.50;4.72;;;8.50;99.90;;;;;;5022244;28;20037;-88
2022/04/06 04:11:13;;;;;;;15.02;4.82;;;8.40;99.90;;;;;;4985586;28;20037;-88
2022/04/06 04:13:39;;;;;;;16.08;5.45;;;9.50;99.90;;;;;;5012931;28;20055;-89
2022/04/06 04:16:06;;;;;;;19.27;6.03;;;8.40;99.90;;;;;;4992430;28;20751;-88
2022/04/06 04:18:32;;;;;;;16.95;5.60;;;8.40;99.90;;;;;;5026353;28;20045;-88
2022/04/06 04:23:42;;;;;;;18.00;6.00;;;8.40;99.90;;;;;;4995079;28;20042;-88
2022/04/06 04:26:08;;;;;;;18.55;6.55;;;;;;;;;;5015662;28;20635;-89
2022/04/06 04:28:34;;;;;;;20.67;6.40;;;8.40;99.90;;;;;;5014075;28;20146;-88
2022/04/06 04:31:00;;;;;;;17.05;6.38;;;8.40;99.90;;;;;;5008948;28;20080;-88
2022/04/06 04:33:25;;;;;;;17.00;6.32;;;8.40;99.90;;;;;;4971548;28;20040;-88
2022/04/06 04:35:51;;;;;;;19.10;7.03;;;8.30;99.90;;;;;;5012634;28;20034;-88
2022/04/06 04:38:17;;;;;;;19.73;6.78;;;8.40;99.90;;;;;;4998373;28;20063;-89
2022/04/06 04:40:42;;;;;;;19.83;7.18;;;8.80;99.90;;;;;;5001185;28;20559;-88
2022/04/06 04:43:08;;;;;;;18.13;7.10;;;8.30;99.90;;;;;;4997745;28;20442;-89
2022/04/06 04:45:34;;;;;;;24.25;7.88;;;8.30;99.90;;;;;;5014684;28;20080;-89
2022/04/06 04:48:00;;;;;;;22.20;7.68;;;8.30;99.90;;;;;;4979027;28;20032;-88
2022/04/06 04:50:26;;;;;;;18.55;7.00;;;8.70;99.90;;;;;;5006684;28;20042;-88
2022/04/06 04:52:51;;;;;;;19.25;7.72;;;8.30;99.90;;;;;;5029065;28;20033;-88
2022/04/06 04:55:18;;;;;;;18.75;7.25;;;8.40;99.90;;;;;;4999535;28;20041;-90
2022/04/06 04:57:45;;;;;;;23.65;7.97;;;8.40;99.90;;;;;;4997419;28;20199;-89
2022/04/06 05:00:11;;;;;;;19.25;7.78;;;8.40;99.90;;;;;;4994300;28;20087;-87
2022/04/06 05:02:37;;;;;;;22.63;8.00;;;8.40;99.90;;;;;;5017797;28;21979;-88
2022/04/06 05:05:05;;;;;;;19.58;7.90;;;8.40;99.90;;;;;;4997234;28;20505;-89
2022/04/06 05:07:33;;;;;;;19.70;7.10;;;8.40;99.90;;;;;;5011479;28;20030;-89
2022/04/06 05:09:59;;;;;;;22.10;8.10;;;8.40;99.90;;;;;;5015878;28;20043;-87
2022/04/06 05:12:26;;;;;;;20.13;7.18;;;8.40;99.90;;;;;;5011481;28;20036;-87
2022/04/06 05:14:52;;;;;;;19.25;7.32;;;8.40;99.90;;;;;;5003427;28;20037;-88
2022/04/06 05:17:17;;;;;;;21.10;7.13;;;8.40;99.90;;;;;;4997920;28;20128;-88
2022/04/06 05:19:43;;;;;;;17.23;7.45;;;8.40;99.90;;;;;;4985364;28;20490;-89
2022/04/06 05:22:09;;;;;;;17.70;7.22;;;8.40;99.90;;;;;;5003406;28;20523;-89
2022/04/06 05:24:35;;;;;;;19.05;7.32;;;8.40;99.90;;;;;;4999098;28;20570;-87
2022/04/06 05:27:02;;;;;;;25.10;7.45;;;8.50;99.90;;;;;;4993498;28;20036;-88
2022/04/06 05:29:28;;;;;;;19.92;7.63;;;8.40;99.90;;;;;;5003242;28;20048;-88
2022/04/06 05:31:53;;;;;;;18.38;6.65;;;8.40;99.90;;;;;;5004544;28;20032;-88
2022/04/06 05:34:19;;;;;;;21.58;7.10;;;8.40;99.90;;;;;;5018213;28;20529;-87
2022/04/06 05:36:45;;;;;;;20.48;6.72;;;8.40;99.90;;;;;;4986351;28;20045;-88
2022/04/06 05:39:11;;;;;;;15.10;5.63;;;8.00;99.90;;;;;;4993022;28;20045;-86
2022/04/06 05:41:37;;;;;;;18.83;6.07;;;8.40;99.90;;;;;;5002461;28;20037;-87
2022/04/06 05:44:03;;;;;;;23.27;6.75;;;8.40;99.90;;;;;;5018801;28;20053;-87
2022/04/06 05:46:29;;;;;;;19.23;6.20;;;8.40;99.90;;;;;;4994694;28;20034;-87
2022/04/06 05:48:55;;;;;;;21.67;5.95;;;8.40;99.90;;;;;;4993467;28;20193;-85
2022/04/06 05:51:21;;;;;;;19.95;5.97;;;8.30;99.90;;;;;;4995417;28;20073;-87
2022/04/06 05:53:47;;;;;;;18.33;6.07;;;8.70;99.90;;;;;;4989712;28;20036;-88
2022/04/06 05:56:13;;;;;;;17.77;6.82;;;8.80;99.90;;;;;;5015490;28;20498;-88
2022/04/06 05:58:40;;;;;;;17.85;6.25;;;8.30;99.90;;;;;;5018336;28;20119;-88
2022/04/06 06:01:06;;;;;;;18.52;6.00;;;8.30;99.90;;;;;;5000876;28;20049;-89
2022/04/06 06:03:33;;;;;;;21.42;6.82;;;8.30;99.90;;;;;;5013850;28;20124;-88
2022/04/06 06:05:58;;;;;;;17.17;6.00;;;8.80;99.90;;;;;;5002683;28;20037;-87
2022/04/06 06:08:24;;;;;;;14.73;5.47;;;8.30;99.90;;;;;;5002506;28;20086;-88
2022/04/06 06:10:50;;;;;;;17.27;6.05;;;8.30;99.90;;;;;;5022638;28;20041;-89
2022/04/06 06:13:16;;;;;;;15.00;5.68;;;8.30;99.90;;;;;;5032970;28;20045;-87
2022/04/06 06:15:41;;;;;;;16.05;5.97;;;8.70;99.90;;;;;;4985745;28;20050;-87
2022/04/06 06:18:08;;;;;;;16.80;5.75;;;8.20;99.90;;;;;;4984549;28;20167;-87
2022/04/06 06:20:35;;;;;;;17.60;5.63;;;8.20;99.90;;;;;;4995869;28;20041;-89
2022/04/06 06:23:01;;;;;;;15.57;6.05;;;9.30;99.90;;;;;;5019987;28;20132;-86
2022/04/06 06:25:26;;;;;;;16.70;5.30;;;8.20;99.90;;;;;;5018885;28;20123;-89
2022/04/06 06:27:52;;;;;;;13.88;5.25;;;8.20;99.90;;;;;;4988708;28;20041;-88
2022/04/06 06:30:18;;;;;;;15.25;5.75;;;8.20;99.90;;;;;;5006537;28;20049;-89
2022/04/06 06:32:45;;;;;;;15.50;5.55;;;9.10;99.90;;;;;;5014071;28;20441;-89
2022/04/06 06:35:11;;;;;;;17.60;5.68;;;8.20;99.90;;;;;;5013882;28;20033;-87
2022/04/06 06:37:47;;;;;;;13.15;5.55;;;8.20;99.90;;;;;;4984812;28;20091;-88
2022/04/06 06:40:13;;;;;;;16.83;5.18;;;8.30;99.90;;;;;;5024412;28;20042;-87
2022/04/06 06:42:39;;;;;;;10.68;4.50;;;8.20;99.90;;;;;;5015337;28;20080;-88
2022/04/06 06:45:05;;;;;;;15.18;5.35;;;8.20;99.90;;;;;;4985899;28;20072;-88
2022/04/06 06:47:31;;;;;;;15.35;4.97;;;8.20;99.90;;;;;;5021425;28;20073;-86
2022/04/06 06:49:57;;;;;;;12.30;5.40;;;8.20;99.90;;;;;;5013439;28;20076;-87
2022/04/06 06:52:22;;;;;;;11.63;4.43;;;8.30;99.90;;;;;;4989166;28;20037;-87
2022/04/06 06:54:48;;;;;;;10.55;4.32;;;8.30;99.90;;;;;;5000918;28;20041;-87
2022/04/06 06:57:14;;;;;;;13.23;4.60;;;8.20;99.90;;;;;;5000564;28;20120;-87
2022/04/06 06:59:41;;;;;;;12.93;3.85;;;9.20;99.90;;;;;;4989156;28;20112;-88
2022/04/06 07:02:09;;;;;;;13.85;4.88;;;8.30;99.90;;;;;;5013924;28;20045;-87
2022/04/06 07:04:35;;;;;;;11.27;4.05;;;8.20;99.90;;;;;;4990847;28;20040;-88
2022/04/06 07:07:00;;;;;;;13.35;3.95;;;8.30;99.90;;;;;;5015105;28;20048;-88
2022/04/06 07:09:26;;;;;;;11.98;3.72;;;8.60;99.90;;;;;;5018922;28;20033;-88
2022/04/06 07:11:52;;;;;;;12.27;3.78;;;8.30;99.90;;;;;;5001257;28;20123;-88
2022/04/06 07:14:19;;;;;;;14.57;3.95;;;8.30;99.90;;;;;;5013824;28;20116;-87
2022/04/06 07:16:45;;;;;;;10.80;3.80;;;8.30;99.90;;;;;;4999351;28;20053;-89
2022/04/06 07:19:11;;;;;;;11.23;3.67;;;8.40;99.90;;;;;;5000012;28;20098;-86
2022/04/06 07:21:37;;;;;;;11.15;3.35;;;8.30;99.90;;;;;;5015271;28;20045;-87
2022/04/06 07:24:03;;;;;;;14.77;3.53;;;8.30;99.90;;;;;;5000678;28;20080;-87
2022/04/06 07:26:29;;;;;;;13.50;3.47;;;8.30;99.90;;;;;;5031793;28;20041;-85
2022/04/06 07:28:56;;;;;;;15.05;3.92;;;8.30;99.90;;;;;;5000667;28;20076;-89
2022/04/06 07:31:22;;;;;;;12.90;3.25;;;8.30;99.90;;;;;;5015489;28;20120;-87
2022/04/06 07:33:47;;;;;;;13.80;3.83;;;9.20;99.90;;;;;;5016180;28;20196;-87
2022/04/06 07:36:13;;;;;;;11.38;3.58;;;8.30;99.90;;;;;;5015475;28;20037;-88
2022/04/06 07:38:39;;;;;;;13.32;4.00;;;8.30;99.90;;;;;;4975571;28;20052;-87
2022/04/06 07:41:05;;;;;;;12.48;3.50;;;8.30;99.90;;;;;;5006372;28;20638;-87
2022/04/06 07:43:31;;;;;;;10.35;3.50;;;8.30;99.90;;;;;;5032141;28;20049;-86
2022/04/06 07:45:57;;;;;;;13.40;3.70;;;9.70;99.90;;;;;;5016492;28;20075;-86
2022/04/06 07:48:25;;;;;;;12.57;3.58;;;8.30;99.90;;;;;;4999721;28;20091;-87
2022/04/06 07:50:51;;;;;;;14.32;3.83;;;8.80;99.90;;;;;;5014095;28;20033;-86
2022/04/06 07:53:17;;;;;;;9.68;3.47;;;8.30;99.90;;;;;;5032522;28;20090;-87
2022/04/06 07:55:46;;;;;;;11.52;3.50;;;8.30;99.90;;;;;;5016764;28;20048;-87
2022/04/06 07:58:13;;;;;;;14.88;3.78;;;8.50;99.90;;;;;;4998043;28;20055;-86
2022/04/06 08:00:39;;;;;;;10.15;3.50;;;8.30;99.90;;;;;;5013449;28;20041;-87
2022/04/06 08:03:04;;;;;;;12.30;3.58;;;8.30;99.90;;;;;;4979536;28;20041;-87
2022/04/06 08:05:30;;;;;;;13.05;3.60;;;8.30;99.90;;;;;;5029251;28;20086;-87
2022/04/06 08:07:56;;;;;;;14.05;3.70;;;8.40;99.90;;;;;;5003242;28;20044;-88
2022/04/06 08:10:22;;;;;;;10.75;3.35;;;8.40;99.90;;;;;;4994733;28;20163;-87
2022/04/06 08:12:48;;;;;;;15.32;3.85;;;8.40;99.90;;;;;;5032858;28;20041;-87
2022/04/06 08:15:15;;;;;;;12.40;3.70;;;8.40;99.90;;;;;;4999263;28;20115;-86
2022/04/06 08:17:44;;;;;;;14.75;3.85;;;8.50;99.90;;;;;;5032566;28;20048;-88
2022/04/06 08:20:11;;;;;;;15.23;4.15;;;8.50;99.90;;;;;;5015945;28;20041;-87
2022/04/06 08:22:41;;;;;;;12.68;3.67;;;8.50;99.90;;;;;;4983080;28;20096;-86
2022/04/06 08:25:07;;;;;;;14.95;4.68;;;8.50;99.90;;;;;;5029789;28;20041;-87
2022/04/06 08:27:39;;;;;;;13.95;3.92;;;8.50;99.90;;;;;;5003667;28;20095;-87
2022/04/06 08:30:09;;;;;;;17.05;4.32;;;8.50;99.90;;;;;;4987804;28;20053;-87
2022/04/06 08:32:35;;;;;;;14.05;3.85;;;8.50;99.90;;;;;;4996984;28;20619;-87
2022/04/06 08:35:01;;;;;;;12.73;3.50;;;8.50;99.90;;;;;;4998506;28;20041;-86
2022/04/06 08:37:30;;;;;;;11.82;3.40;;;8.50;99.90;;;;;;4998931;28;20417;-87
2022/04/06 08:39:55;;;;;;;13.95;3.75;;;8.90;99.90;;;;;;5027573;28;20545;-87
2022/04/06 08:42:21;;;;;;;17.38;4.00;;;8.50;99.90;;;;;;4971718;28;20037;-86
2022/04/06 08:44:47;;;;;;;15.05;3.83;;;8.50;99.90;;;;;;5008983;28;20037;-86
2022/04/06 08:47:13;;;;;;;11.02;3.45;;;8.50;99.90;;;;;;4979163;28;20037;-87
2022/04/06 08:49:41;;;;;;;11.00;3.47;;;8.50;99.90;;;;;;4995460;28;20045;-84
2022/04/06 08:52:09;;;;;;;13.90;4.10;;;8.50;99.90;;;;;;5028374;28;20501;-87
2022/04/06 08:54:35;;;;;;;12.50;3.60;;;8.50;99.90;;;;;;5001757;28;20091;-88
2022/04/06 08:57:03;;;;;;;12.55;3.45;;;8.50;99.90;;;;;;5015173;28;20045;-87
2022/04/06 08:59:28;;;;;;;11.57;3.42;;;8.50;99.90;;;;;;5015368;28;20442;-87
2022/04/06 09:01:56;;;;;;;13.30;3.85;;;8.50;99.90;;;;;;5022843;28;20037;-87
2022/04/06 09:04:23;;;;;;;13.77;3.83;;;8.60;99.90;;;;;;5011641;28;20041;-87
2022/04/06 09:06:50;;;;;;;16.65;3.80;;;8.70;99.90;;;;;;4980160;28;20037;-87
2022/04/06 09:09:24;;;;;;;13.65;3.60;;;8.80;99.90;;;;;;4996622;28;20045;-88
2022/04/06 09:11:50;;;;;;;14.15;3.95;;;8.80;99.90;;;;;;4999598;28;20036;-85
2022/04/06 09:14:28;;;;;;;12.90;3.38;;;8.80;99.90;;;;;;5030149;28;20557;-87
2022/04/06 09:17:04;;;;;;;12.75;3.55;;;8.90;99.90;;;;;;4992704;28;20066;-88
2022/04/06 09:19:31;;;;;;;14.98;3.83;;;8.90;99.90;;;;;;4977008;28;20049;-87
2022/04/06 09:21:57;;;;;;;11.43;3.28;;;9.00;99.90;;;;;;4971284;28;20052;-87
2022/04/06 09:24:26;;;;;;;14.95;3.58;;;9.00;99.90;;;;;;5009296;28;20041;-87
2022/04/06 09:27:03;;;;;;;16.20;4.15;;;9.10;99.90;;;;;;4960335;28;20042;-88
2022/04/06 09:29:30;;;;;;;14.27;3.75;;;9.10;99.90;;;;;;5006800;28;20073;-87
2022/04/06 09:32:08;;;;;;;10.98;3.63;;;9.40;99.90;;;;;;4995316;28;20040;-87
2022/04/06 09:34:35;;;;;;;14.15;3.60;;;9.20;99.90;;;;;;4976732;28;20101;-88
2022/04/06 09:37:27;;;;;;;16.10;4.03;;;9.20;99.90;;;;;;4976071;28;20121;-87
2022/04/06 09:39:53;;;;;;;11.70;3.20;;;9.30;99.90;;;;;;4976329;28;20042;-88
2022/04/06 09:42:27;;;;;;;13.85;3.67;;;9.40;99.90;;;;;;4976908;28;20052;-87
2022/04/06 09:47:39;;;;;;;12.48;3.70;;;9.50;99.90;;;;;;4997860;28;20136;-88
2022/04/06 09:50:27;;;;;;;14.48;3.80;;;9.60;99.90;;;;;;4997672;28;20037;-88
2022/04/06 09:52:57;;;;;;;11.90;3.60;;;9.70;99.90;;;;;;5001395;28;20045;-88
2022/04/06 09:55:23;;;;;;;14.07;3.42;;;9.70;99.90;;;;;;5003343;28;20095;-90
2022/04/06 09:57:55;;;;;;;15.05;4.25;;;9.70;99.90;;;;;;5017983;28;20124;-87
2022/04/06 10:00:26;;;;;;;12.33;3.77;;;9.80;99.90;;;;;;4990492;28;20045;-88
2022/04/06 10:03:09;;;;;;;11.98;3.65;;;9.90;99.90;;;;;;4999606;28;20513;-89
2022/04/06 10:05:37;;;;;;;15.13;4.07;;;10.00;99.90;;;;;;4998046;28;20048;-88
2022/04/06 10:08:05;;;;;;;16.20;3.80;;;11.00;99.90;;;;;;4959800;28;20120;-86
2022/04/06 10:10:33;;;;;;;17.20;4.05;;;9.90;99.90;;;;;;4985537;28;20069;-87
2022/04/06 10:12:59;;;;;;;13.02;3.88;;;9.90;99.90;;;;;;4982869;28;20037;-87
2022/04/06 10:15:25;;;;;;;13.02;3.63;;;9.80;99.90;;;;;;4995449;28;20041;-87
2022/04/06 10:17:51;;;;;;;18.23;4.25;;;9.80;99.90;;;;;;5012670;28;20045;-87
2022/04/06 10:20:41;;;;;;;14.68;4.18;;;9.80;99.90;;;;;;5035592;28;20048;-87
2022/04/06 10:23:43;;;;;;;13.65;3.65;;;9.80;99.90;;;;;;5023326;28;20047;-86
2022/04/06 10:26:24;;;;;;;15.32;3.88;;;9.80;99.90;;;;;;5018844;28;20391;-88
2022/04/06 10:28:51;;;;;;;16.13;3.90;;;9.70;99.90;;;;;;5023525;28;20044;-87
2022/04/06 10:31:28;;;;;;;15.93;4.10;;;9.70;99.90;;;;;;5018803;28;20041;-88
2022/04/06 10:34:19;;;;;;;16.63;4.07;;;9.70;99.90;;;;;;5035398;28;20513;-88
2022/04/06 10:37:06;;;;;;;14.90;3.67;;;9.70;99.90;;;;;;5035588;28;20111;-87
2022/04/06 10:39:57;;;;;;;12.70;3.75;;;9.70;99.90;;;;;;5016754;28;20692;-89
2022/04/06 10:42:37;;;;;;;15.65;4.25;;;9.70;99.90;;;;;;5016139;28;20494;-88
2022/04/06 10:45:25;;;;;;;12.18;4.07;;;9.70;99.90;;;;;;5019164;28;20079;-87
2022/04/06 10:48:09;;;;;;;18.42;4.68;;;9.70;99.90;;;;;;5034279;28;20037;-89
2022/04/06 10:50:35;;;;;;;13.57;3.92;;;9.70;99.90;;;;;;5018170;28;20073;-89
2022/04/06 10:53:21;;;;;;;14.02;4.47;;;9.70;99.90;;;;;;5003527;28;20044;-88
2022/04/06 10:56:13;;;;;;;12.93;4.38;;;10.00;99.90;;;;;;5007065;28;20522;-87
2022/04/06 10:58:57;;;;;;;17.87;4.13;;;9.70;99.90;;;;;;4982806;28;20084;-86
2022/04/06 11:01:31;;;;;;;16.88;4.38;;;9.70;99.90;;;;;;5013037;28;20284;-88
2022/04/06 11:04:15;;;;;;;17.17;4.38;;;9.70;99.90;;;;;;4999728;28;20037;-87
2022/04/06 11:06:52;;;;;;;15.68;4.43;;;9.70;99.90;;;;;;5020406;28;20037;-87
2022/04/06 11:12:23;;;;;;;14.60;4.30;;;9.70;99.90;;;;;;5001029;28;20042;-87
2022/04/06 11:15:10;;;;;;;19.02;5.22;;;9.70;99.90;;;;;;5025687;28;20041;-88
2022/04/06 11:17:44;;;;;;;14.73;4.70;;;9.90;99.90;;;;;;5012583;28;20057;-87
2022/04/06 11:20:28;;;;;;;14.18;4.45;;;9.70;99.90;;;;;;5014208;28;20064;-88
2022/04/06 11:22:56;;;;;;;16.15;4.72;;;9.70;99.90;;;;;;5013538;28;20506;-88
2022/04/06 11:25:27;;;;;;;18.15;5.00;;;9.70;99.90;;;;;;5014433;28;20144;-88
2022/04/06 11:27:55;;;;;;;21.13;4.82;;;9.70;99.90;;;;;;5013621;28;20041;-87
2022/04/06 11:30:23;;;;;;;15.88;4.55;;;10.50;99.90;;;;;;4997919;28;20044;-87
2022/04/06 11:32:59;;;;;;;19.40;4.88;;;9.60;99.90;;;;;;4986996;28;20423;-87
2022/04/06 11:35:36;;;;;;;18.27;5.03;;;9.70;99.90;;;;;;5011950;28;20643;-88
2022/04/06 11:38:08;;;;;;;15.52;4.88;;;9.80;99.90;;;;;;4997492;28;20376;-88
2022/04/06 11:40:39;;;;;;;21.27;4.80;;;9.90;99.90;;;;;;4996543;28;20042;-88
2022/04/06 11:43:05;;;;;;;18.02;4.53;;;10.10;99.90;;;;;;4996918;28;20122;-87
2022/04/06 11:45:39;;;;;;;16.65;4.22;;;10.30;99.90;;;;;;4981381;28;20037;-87
2022/04/06 11:48:07;;;;;;;14.90;4.55;;;10.60;99.90;;;;;;5013674;28;20048;-88
2022/04/06 11:50:37;;;;;;;18.08;5.13;;;10.90;99.90;;;;;;5003657;28;20045;-88
2022/04/06 11:53:15;;;;;;;17.30;4.22;;;11.10;99.90;;;;;;4995296;28;20052;-87
2022/04/06 11:55:54;;;;;;;16.75;4.68;;;11.20;99.90;;;;;;4996698;28;20126;-86
2022/04/06 11:58:39;;;;;;;19.05;5.15;;;11.40;99.90;;;;;;5013460;28;20160;-87
2022/04/06 12:01:09;;;;;;;17.17;4.32;;;11.60;99.90;;;;;;5017624;28;20073;-88
2022/04/06 12:03:37;;;;;;;14.85;4.25;;;11.80;99.90;;;;;;4998372;28;20046;-87
2022/04/06 12:06:14;;;;;;;14.77;4.18;;;12.00;99.90;;;;;;4996942;28;20045;-88
2022/04/06 12:08:41;;;;;;;17.48;4.15;;;12.10;99.90;;;;;;5014898;28;20047;-89
2022/04/06 12:11:08;;;;;;;12.45;3.85;;;12.20;99.90;;;;;;4997538;28;20696;-87
2022/04/06 12:13:39;;;;;;;18.15;4.10;;;12.10;99.90;;;;;;4996280;28;20052;-89
2022/04/06 12:16:06;;;;;;;13.60;3.60;;;12.00;99.90;;;;;;5011238;28;20111;-91
2022/04/06 12:18:33;;;;;;;18.25;4.15;;;11.90;99.90;;;;;;5012372;28;20041;-89
2022/04/06 12:20:59;;;;;;;12.30;4.03;;;11.90;99.90;;;;;;5002988;28;20068;-85
2022/04/06 12:23:26;;;;;;;10.73;3.25;;;11.80;99.90;;;;;;5013316;28;20037;-88
2022/04/06 12:25:56;;;;;;;15.20;3.50;;;11.80;99.90;;;;;;4997086;28;20192;-87
2022/04/06 12:28:26;;;;;;;11.13;3.10;;;11.80;99.90;;;;;;5013850;28;20064;-87
2022/04/06 12:30:57;;;;;;;13.18;3.22;;;11.80;99.90;;;;;;5013828;28;20468;-89
2022/04/06 12:33:36;;;;;;;13.77;3.33;;;11.60;99.90;;;;;;5016063;28;20041;-88
2022/04/06 12:36:24;;;;;;;12.60;3.15;;;11.60;99.90;;;;;;5014736;28;20080;-87
2022/04/06 12:39:10;;;;;;;13.15;3.13;;;11.50;99.90;;;;;;5024186;28;20445;-87
2022/04/06 12:42:07;;;;;;;14.90;3.50;;;11.60;99.90;;;;;;5020383;28;20045;-86
2022/04/06 12:44:35;;;;;;;15.13;3.28;;;11.70;99.90;;;;;;5035729;28;20048;-87
2022/04/06 12:47:03;;;;;;;11.13;3.03;;;11.70;99.90;;;;;;5005694;28;20063;-88
2022/04/06 12:49:42;;;;;;;14.93;3.47;;;11.70;99.90;;;;;;5009626;28;20056;-87
2022/04/06 12:52:09;;;;;;;14.63;2.95;;;11.60;99.90;;;;;;5013435;28;20095;-88
2022/04/06 12:54:36;;;;;;;14.73;3.40;;;11.50;99.90;;;;;;5026176;28;20034;-88
2022/04/06 12:57:08;;;;;;;13.32;2.95;;;11.50;99.90;;;;;;5003338;28;20077;-86
2022/04/06 12:59:37;;;;;;;14.73;3.17;;;11.40;99.90;;;;;;5007159;28;20056;-88
2022/04/06 13:02:04;;;;;;;12.15;3.00;;;11.40;99.90;;;;;;5004320;28;20072;-86
2022/04/06 13:04:32;;;;;;;16.20;3.53;;;11.50;99.90;;;;;;5012587;28;20103;-87